Fayetteville Regional Grannis Field
KFAY : now visible

Aeroporto :











RITROVATECI SU...

 
LOGIN :

Iscrizione | Disclaimer

   EN    FR    IT 

 









Sommario :    VFR   VFR Marginale   IFR   IFR Intensivo   IFR Molto Intensivo
Visibilità : 
Base nubi : 
>= 8 km
>= 3000ft
5 / 8 km
1000 / 3000 ft
1500m / 5 km
500 / 1000 ft
800 / 1500m
200 / 500 ft
< 800m
< 200 ft
Simboli :   Temporali  Nebbia  Neve Forte  Precipitazioni Forti  Vento > 20 kt






- Altitudine del aeroporto : 189 ft
- Codice IATA : FAY


KFAY - Fayetteville Regional Grannis Field

ULTIMO METAR :
  • 271953Z 26009KT 10SM OVC085 13/05 A2979 RMK AO2 SLP084 T01280050

METARs OBSOLETI :
  • 271853Z 27010KT 10SM OVC080 12/04 A2982 RMK AO2 SLP094 T01170039
  • 271753Z 26010KT 10SM FEW065 SCT080 OVC090 13/04 A2985 RMK AO2 SLP105 T01280039 10133 20044 58023

TAF KFAY
Valido dal 27 a 18 ore il 28 a 18 ore UTC


271737Z 2718/2818 22007KT P6SM VCSH BKN100
FM272000 24007KT P6SM VCSH BKN035 OVC060
TEMPO 2721/2801 5SM -SHRA BR OVC030
FM280300 27004KT P6SM FEW035
FM280800 33005KT P6SM SKC



MetMap, La meteo Aeronautica in un colpo d'occhio ! - Copyright ORBIFLY Dicembre 2007 - Disclaimer

ORBIFLY MET'MAP TEAM :

Programmazione e sviluppo : Alexandra Zaïnal
Concezione : Baudouin d'Aumeries
Aiuto per la programmazione : Marc-Olivier Méhu
Supporto tecnico e logistico : Manuel Goepfert
Aiuto per la traduzione : Arnaldo La Scala

Contatto : metmap@orbifly.com




FONTI E CREDITI :

   NOAA       Earth
Advisory